Jennings, Maryland
Current Conditions -  °F | °C
As of 2:35 AM on Saturday 25 Oct 2014 (Local Time) from K2G4 Reporting Station
Clear Clear  
Wind Chill: 37°   Ceiling: Unl
Heat Index: 43°   Visibility: 10mi
Dew Point: 37°   Wind: 9mph
Humidity: 81%   Direction: 240°WSW
Pressure: 30.02"   Gusts: NA
Location:  39.6703°N, 79.1506°W
Report Text: K2G4 250635Z AUTO 24008KT 10SM CLR 06/03 A3002 RMK AO1
Loading
Personal Weather Stations






























Interactive Weather Map
Tropical Storm Tracking
New forecast layout! Learn more

10-Day Weather Forecast

Advertisements
Track Severe Weather on mobile